createdAt,value
2024-04-23T22:08:48.721Z,9.762644
2024-04-23T22:09:48.711Z,9.762396
2024-04-23T22:10:48.751Z,9.762578
2024-04-23T22:11:48.807Z,9.762548
2024-04-23T22:12:48.688Z,9.762528
2024-04-23T22:13:48.677Z,9.762897
2024-04-23T22:14:48.655Z,9.763239
2024-04-23T22:15:48.640Z,9.763351
2024-04-23T22:16:48.711Z,9.763257
2024-04-23T22:17:48.780Z,9.763257
2024-04-23T22:18:48.710Z,9.763726
2024-04-23T22:19:48.651Z,9.763855
2024-04-23T22:20:48.593Z,9.763905
2024-04-23T22:21:48.586Z,9.763945
2024-04-23T22:22:48.609Z,9.763945
2024-04-23T22:23:48.562Z,9.763945
2024-04-23T22:24:48.553Z,9.763945
2024-04-23T22:25:48.559Z,9.763945
2024-04-23T22:26:48.530Z,9.763945
2024-04-23T22:27:48.537Z,9.763945
2024-04-23T22:28:48.563Z,9.763945
2024-04-23T22:29:48.501Z,9.763945
2024-04-23T22:30:48.498Z,9.763945
2024-04-23T22:31:48.491Z,9.763945
2024-04-23T22:32:49.511Z,9.763945
2024-04-23T22:33:48.525Z,9.763945
2024-04-23T22:34:48.493Z,9.763945
2024-04-23T22:35:48.448Z,9.763945
2024-04-23T22:36:48.442Z,9.764562
2024-04-23T22:37:48.435Z,9.764449
2024-04-23T22:38:49.414Z,9.763992
2024-04-23T22:39:48.405Z,9.764071
2024-04-23T22:40:48.438Z,9.764288
2024-04-23T22:41:48.406Z,9.764802
2024-04-23T22:42:48.369Z,9.765272
2024-04-23T22:43:48.382Z,9.765272
2024-04-23T22:44:48.349Z,9.764874
2024-04-23T22:45:48.344Z,9.763527
2024-04-23T22:46:48.349Z,9.763527
2024-04-23T22:47:48.384Z,9.762888
2024-04-23T22:48:48.442Z,9.763313
2024-04-23T22:49:48.349Z,9.763840
2024-04-23T22:50:48.305Z,9.763434
2024-04-23T22:51:48.323Z,9.763443
2024-04-23T22:52:48.296Z,9.738171
2024-04-23T22:53:48.260Z,9.738171
2024-04-23T22:54:48.246Z,9.738171
2024-04-23T22:55:48.265Z,9.694579
2024-04-23T22:56:48.241Z,9.694579
2024-04-23T22:57:48.216Z,9.694579
2024-04-23T22:58:48.220Z,9.694579
2024-04-23T22:59:48.203Z,9.694579
2024-04-23T23:00:48.191Z,9.694579
2024-04-23T23:01:48.188Z,9.694579
2024-04-23T23:02:48.286Z,9.694579
2024-04-23T23:03:48.166Z,9.694579
2024-04-23T23:04:48.185Z,9.694579
2024-04-23T23:05:48.137Z,9.694579
2024-04-23T23:06:48.154Z,9.694579
2024-04-23T23:07:48.147Z,9.694579
2024-04-23T23:08:48.110Z,9.694579
2024-04-23T23:09:48.103Z,9.694579
2024-04-23T23:10:48.189Z,9.694579
2024-04-23T23:11:48.194Z,9.694579
2024-04-23T23:12:48.061Z,9.694579
2024-04-23T23:13:48.067Z,9.694579
2024-04-23T23:14:48.050Z,9.694579
2024-04-23T23:15:48.039Z,9.694579
2024-04-23T23:16:48.086Z,9.694579
2024-04-23T23:17:48.021Z,9.694579
2024-04-23T23:18:47.996Z,9.694579
2024-04-23T23:19:48.034Z,9.694579
2024-04-23T23:20:47.991Z,9.694579
2024-04-23T23:21:47.964Z,9.694579
2024-04-23T23:22:50.093Z,9.694579
2024-04-23T23:23:48.959Z,9.694579
2024-04-23T23:24:47.980Z,9.694579
2024-04-23T23:25:47.991Z,9.694579
2024-04-23T23:26:47.920Z,9.694579
2024-04-23T23:27:47.912Z,9.694579
2024-04-23T23:28:47.919Z,9.694579
2024-04-23T23:29:47.898Z,9.694579
2024-04-23T23:30:47.876Z,9.694579
2024-04-23T23:31:47.889Z,9.694579
2024-04-23T23:32:47.977Z,9.694579
2024-04-23T23:33:47.905Z,9.694579
2024-04-23T23:34:47.883Z,9.694579
2024-04-23T23:35:47.828Z,9.694579
2024-04-23T23:36:47.818Z,9.694579
2024-04-23T23:37:47.839Z,9.694579
2024-04-23T23:38:47.816Z,9.694579
2024-04-23T23:39:48.782Z,9.694579
2024-04-23T23:40:47.836Z,9.694579
2024-04-23T23:41:47.763Z,9.694579
2024-04-23T23:42:47.772Z,9.694579
2024-04-23T23:43:47.778Z,9.694579
2024-04-23T23:44:47.733Z,9.694579
2024-04-23T23:45:47.720Z,9.694579
2024-04-23T23:46:47.794Z,9.694579
2024-04-23T23:47:47.840Z,9.694579
2024-04-23T23:48:47.733Z,9.694579
2024-04-23T23:49:47.733Z,9.694579
2024-04-23T23:50:47.687Z,9.694579
2024-04-23T23:51:47.662Z,9.694579
2024-04-23T23:52:47.685Z,9.694579
2024-04-23T23:53:47.651Z,9.694579
2024-04-23T23:54:47.654Z,9.694579
2024-04-23T23:55:47.644Z,9.694579
2024-04-23T23:56:47.617Z,9.694579
2024-04-23T23:57:47.611Z,9.694579
2024-04-23T23:58:47.631Z,9.694579
2024-04-23T23:59:47.570Z,9.694579
